Time;durP1;ratioP1;P1;durP2;ratioP2;P2;SDS_P1;SDS_P2;PMS_P1;PMS_P2;Temp;Humidity;BMP_temperature;BMP_pressure;BME280_temperature;BME280_humidity;BME280_pressure;Samples;Min_cycle;Max_cycle;Signal;HPM_P1;HPM_P2
2023/10/06 00:01:48;;;;;;;12.35;3.60;;;;;;;17.75;53.47;100719.88;4933874;29;20032;-81
2023/10/06 00:04:18;;;;;;;10.18;3.08;;;;;;;17.73;53.44;100721.72;4921832;29;20452;-82
2023/10/06 00:06:45;;;;;;;10.77;3.10;;;;;;;17.71;53.48;100715.53;4914670;29;20055;-81
2023/10/06 00:12:07;;;;;;;15.55;3.22;;;;;;;17.63;53.65;100721.06;4902478;29;20040;-82
2023/10/06 00:14:48;;;;;;;12.23;3.35;;;;;;;17.63;53.74;100714.88;4914717;29;20485;-82
2023/10/06 00:17:18;;;;;;;9.73;2.95;;;;;;;17.59;53.80;100705.22;4914455;29;20043;-82
2023/10/06 00:19:44;;;;;;;9.73;3.22;;;;;;;17.57;53.74;100713.22;4897422;29;20411;-81
2023/10/06 00:24:47;;;;;;;12.40;3.83;;;;;;;17.53;53.75;100710.69;4929914;29;20388;-82
2023/10/06 00:27:12;;;;;;;13.95;3.22;;;;;;;17.49;53.92;100718.78;4917257;29;20036;-82
2023/10/06 00:29:43;;;;;;;11.03;3.20;;;;;;;17.44;53.69;100718.00;4914280;29;20441;-82
2023/10/06 00:32:21;;;;;;;11.20;3.22;;;;;;;17.41;54.28;100710.09;4913915;29;20051;-81
2023/10/06 00:34:50;;;;;;;11.52;3.60;;;;;;;17.37;54.21;100711.09;4914391;29;20051;-82
2023/10/06 00:37:16;;;;;;;11.50;3.00;;;;;;;17.35;54.25;100704.94;4914336;29;20032;-81
2023/10/06 00:39:43;;;;;;;14.40;3.23;;;;;;;17.32;54.35;100707.66;4914028;29;20036;-82
2023/10/06 00:42:12;;;;;;;12.65;3.22;;;;;;;17.30;54.40;100712.16;4914234;29;20103;-81
2023/10/06 00:44:39;;;;;;;16.02;3.53;;;;;;;17.28;54.38;100698.03;4914051;29;20472;-82
2023/10/06 00:47:06;;;;;;;11.00;3.28;;;;;;;17.25;54.48;100703.41;4913666;29;20288;-81
2023/10/06 00:49:33;;;;;;;11.63;3.53;;;;;;;17.21;54.46;100700.81;4913960;29;20032;-81
2023/10/06 00:52:06;;;;;;;9.50;2.87;;;;;;;17.16;54.59;100697.41;4914134;29;20028;-81
2023/10/06 00:54:31;;;;;;;12.95;3.42;;;;;;;17.10;54.63;100696.66;4914055;29;20374;-82
2023/10/06 00:56:58;;;;;;;10.80;3.27;;;;;;;17.05;54.86;100691.47;4927159;29;20074;-81
2023/10/06 00:59:24;;;;;;;12.75;3.65;;;;;;;17.02;55.02;100696.88;4933007;29;20049;-82
2023/10/06 01:01:52;;;;;;;9.70;3.20;;;;;;;16.97;54.91;100696.06;4917820;29;20024;-81
2023/10/06 01:04:19;;;;;;;11.90;3.10;;;;;;;16.93;55.11;100703.25;4913269;29;20186;-82
2023/10/06 01:06:45;;;;;;;9.10;3.10;;;;;;;16.88;55.17;100705.13;4896766;29;20024;-82
2023/10/06 01:11:50;;;;;;;11.38;3.05;;;;;;;16.84;55.96;100704.34;4914103;29;20494;-82
2023/10/06 01:14:26;;;;;;;10.73;3.13;;;;;;;16.83;55.51;100694.59;4913896;29;20171;-81
2023/10/06 01:16:53;;;;;;;15.77;3.65;;;;;;;16.82;55.58;100698.19;4913609;29;20514;-81
2023/10/06 01:19:33;;;;;;;11.20;2.87;;;;;;;16.78;55.47;100699.16;4913097;29;20392;-81
2023/10/06 01:22:05;;;;;;;9.52;3.25;;;;;;;16.73;55.71;100698.38;4913256;29;20523;-81
2023/10/06 01:24:31;;;;;;;10.10;2.85;;;;;;;16.70;55.94;100690.47;4927693;29;20059;-81
2023/10/06 01:27:00;;;;;;;9.10;3.07;;;;;;;16.68;55.93;100697.59;4918745;29;20489;-81
2023/10/06 01:29:29;;;;;;;9.55;2.90;;;;;;;16.67;55.87;100701.19;4913103;29;20028;-81
2023/10/06 01:31:55;;;;;;;7.85;2.72;;;;;;;16.63;55.75;100695.03;4913325;29;20055;-81
2023/10/06 01:34:20;;;;;;;9.73;2.47;;;;;;;16.60;55.95;100696.00;4913024;29;20040;-81
2023/10/06 01:36:52;;;;;;;10.67;2.60;;;;;;;16.57;56.07;100698.72;4911659;29;20588;-81
2023/10/06 01:39:25;;;;;;;11.57;2.50;;;;;;;16.52;56.05;100692.66;4913400;29;20032;-81
2023/10/06 01:41:51;;;;;;;12.63;3.00;;;;;;;16.48;56.24;100689.19;4912826;29;20036;-81
2023/10/06 01:44:17;;;;;;;9.13;2.58;;;;;;;16.47;56.15;100694.50;4913204;29;20028;-82
2023/10/06 01:46:44;;;;;;;8.07;2.97;;;;;;;16.44;56.22;100684.84;4925172;29;20027;-81
2023/10/06 01:49:14;;;;;;;9.85;2.67;;;;;;;16.42;56.20;100680.44;4916987;29;20120;-81
2023/10/06 01:51:42;;;;;;;9.85;2.90;;;;;;;16.40;56.16;100687.59;4913338;29;20450;-81
2023/10/06 01:54:12;;;;;;;9.93;3.00;;;;;;;16.35;56.30;100691.22;4913143;29;20513;-81
2023/10/06 01:56:42;;;;;;;9.48;2.85;;;;;;;16.30;56.33;100687.78;4920103;29;20063;-81
2023/10/06 01:59:16;;;;;;;15.20;2.70;;;;;;;16.26;56.44;100680.78;4913083;29;20082;-81
2023/10/06 02:01:42;;;;;;;10.43;2.70;;;;;;;16.21;56.53;100682.66;4912844;29;20030;-81
2023/10/06 02:04:14;;;;;;;10.60;3.00;;;;;;;16.17;56.75;100688.94;4909522;29;20028;-82
2023/10/06 02:06:41;;;;;;;11.52;2.70;;;;;;;16.16;57.25;100682.78;4913052;29;20032;-81
2023/10/06 02:09:15;;;;;;;11.63;2.72;;;;;;;16.16;56.99;100684.53;4912857;29;20032;-81
2023/10/06 02:11:46;;;;;;;9.87;3.23;;;;;;;16.17;57.25;100687.19;4913080;29;20032;-82
2023/10/06 02:14:17;;;;;;;12.32;2.63;;;;;;;16.15;57.00;100688.09;4913035;29;20099;-81
2023/10/06 02:16:44;;;;;;;10.07;3.60;;;;;;;16.11;57.25;100687.28;4899642;29;20119;-82
2023/10/06 02:19:16;;;;;;;11.63;2.60;;;;;;;16.10;57.36;100687.31;4899354;29;20489;-81
2023/10/06 02:21:43;;;;;;;11.55;3.08;;;;;;;16.09;57.39;100690.91;4916386;29;20035;-81
2023/10/06 02:24:08;;;;;;;9.27;2.87;;;;;;;16.07;57.40;100685.59;4927702;29;20039;-81
2023/10/06 02:26:37;;;;;;;9.07;2.53;;;;;;;16.06;57.35;100684.75;4924644;29;20032;-81
2023/10/06 02:29:11;;;;;;;14.23;3.05;;;;;;;16.03;57.50;100687.44;4916510;29;20036;-81
2023/10/06 02:31:36;;;;;;;14.07;2.67;;;;;;;15.97;57.43;100690.22;4916315;29;20051;-81
2023/10/06 02:34:04;;;;;;;9.03;2.50;;;;;;;15.93;57.60;100689.41;4916070;29;20036;-81
2023/10/06 02:36:31;;;;;;;13.23;2.97;;;;;;;15.91;57.80;100690.34;4916160;29;20052;-81
2023/10/06 02:39:05;;;;;;;8.38;2.97;;;;;;;15.88;58.08;100693.03;4916457;29;20036;-81
2023/10/06 02:41:32;;;;;;;10.57;2.67;;;;;;;15.86;57.75;100697.50;4916479;29;20058;-81
2023/10/06 02:44:08;;;;;;;10.32;2.63;;;;;;;15.83;57.89;100692.25;4916637;29;20031;-82
2023/10/06 02:46:36;;;;;;;12.93;3.00;;;;;;;15.83;57.98;100697.56;4916475;29;20051;-82
2023/10/06 02:49:07;;;;;;;8.45;2.75;;;;;;;15.81;58.12;100699.38;4916386;29;20032;-81
2023/10/06 02:51:32;;;;;;;9.38;2.70;;;;;;;15.77;57.78;100696.75;4916142;29;20028;-81
2023/10/06 02:56:46;;;;;;;9.90;2.30;;;;;;;15.73;58.13;100694.19;4927242;29;20571;-82
2023/10/06 02:59:21;;;;;;;10.60;3.08;;;;;;;15.71;58.12;100698.66;4935330;29;20032;-81
2023/10/06 03:01:57;;;;;;;11.90;2.70;;;;;;;15.66;58.36;100706.69;4915808;29;20388;-81
2023/10/06 03:04:27;;;;;;;7.30;2.53;;;;;;;15.64;58.08;100700.53;4915605;29;20024;-81
2023/10/06 03:06:58;;;;;;;11.07;2.80;;;;;;;15.61;58.16;100703.25;4916093;29;20145;-81
2023/10/06 03:09:29;;;;;;;14.77;2.90;;;;;;;15.55;58.11;100698.03;4915870;29;20156;-81
2023/10/06 03:11:58;;;;;;;10.90;2.50;;;;;;;15.48;58.26;100698.16;4915534;29;20036;-81
2023/10/06 03:14:37;;;;;;;9.07;3.20;;;;;;;15.46;58.46;100705.28;4915440;29;20493;-81
2023/10/06 03:17:08;;;;;;;8.82;2.35;;;;;;;15.41;58.79;100704.47;4915423;29;20161;-81
2023/10/06 03:19:40;;;;;;;10.32;2.42;;;;;;;15.41;58.71;100695.63;4915840;29;20527;-81
2023/10/06 03:22:12;;;;;;;10.02;2.50;;;;;;;15.40;58.62;100704.50;4916051;29;20040;-80
2023/10/06 03:24:53;;;;;;;9.48;2.67;;;;;;;15.38;58.59;100701.00;4915368;29;20028;-81
2023/10/06 03:27:18;;;;;;;7.47;2.40;;;;;;;15.34;58.42;100706.34;4915604;29;20417;-81
2023/10/06 03:30:33;;;;;;;8.20;2.40;;;;;;;15.31;58.62;100705.53;4924512;29;20043;-81
2023/10/06 03:32:32;;;;;;;9.75;2.90;;;;;;;15.27;58.82;100703.81;4906164;29;20224;-81
2023/10/06 03:37:51;;;;;;;8.52;2.47;;;;;;;15.21;59.01;100705.69;4916018;29;20040;-81
2023/10/06 03:40:29;;;;;;;9.55;2.60;;;;;;;15.19;59.24;100715.44;4915450;29;20453;-81
2023/10/06 03:42:56;;;;;;;9.05;2.60;;;;;;;15.17;59.02;100711.94;4915324;29;20277;-81
2023/10/06 03:45:29;;;;;;;9.30;2.80;;;;;;;15.17;59.02;100709.28;4915304;29;20044;-81
2023/10/06 03:48:08;;;;;;;11.57;2.50;;;;;;;15.14;59.19;100709.34;4914951;29;20052;-81
2023/10/06 03:50:38;;;;;;;6.55;2.13;;;;;;;15.15;59.11;100712.84;4915309;29;20024;-82
2023/10/06 03:53:07;;;;;;;10.15;2.40;;;;;;;15.17;59.44;100717.25;4898797;29;20043;-81
2023/10/06 03:55:39;;;;;;;11.32;2.83;;;;;;;15.16;59.27;100712.84;4915231;29;20020;-81
2023/10/06 03:58:05;;;;;;;7.22;2.38;;;;;;;15.15;59.34;100726.13;4910546;29;20059;-81
2023/10/06 04:00:38;;;;;;;7.80;2.57;;;;;;;15.06;59.44;100729.78;4915098;29;20024;-82
2023/10/06 04:03:05;;;;;;;9.90;2.55;;;;;;;14.98;59.68;100718.44;4897782;29;20020;-81
2023/10/06 04:05:37;;;;;;;7.97;3.17;;;;;;;14.96;59.96;100720.22;4915074;29;20028;-81
2023/10/06 04:08:11;;;;;;;10.25;2.50;;;;;;;14.94;59.99;100722.88;4914948;29;20029;-81
2023/10/06 04:10:40;;;;;;;7.68;2.22;;;;;;;14.92;59.67;100724.69;4914839;29;20500;-81
2023/10/06 04:13:08;;;;;;;10.53;2.50;;;;;;;14.91;59.91;100718.53;4914823;29;20028;-82
2023/10/06 04:15:38;;;;;;;7.93;2.42;;;;;;;14.91;59.88;100720.28;4897444;29;20118;-82
2023/10/06 04:18:10;;;;;;;7.07;2.28;;;;;;;14.88;59.85;100723.88;4914401;29;20043;-81
2023/10/06 04:20:42;;;;;;;11.68;2.80;;;;;;;14.85;60.06;100729.22;4914893;29;20027;-82
2023/10/06 04:23:09;;;;;;;6.72;2.65;;;;;;;14.83;60.04;100728.38;4914663;29;20051;-81
2023/10/06 04:25:37;;;;;;;8.50;2.40;;;;;;;14.81;60.00;100721.34;4914467;29;20526;-81
2023/10/06 04:28:16;;;;;;;10.25;2.20;;;;;;;14.77;60.72;100723.13;4914777;29;20181;-81
2023/10/06 04:30:42;;;;;;;7.45;2.13;;;;;;;14.76;60.24;100722.28;4914460;29;20032;-81
2023/10/06 04:33:11;;;;;;;12.43;2.95;;;;;;;14.73;60.00;100727.63;4913984;29;20044;-81
2023/10/06 04:35:42;;;;;;;9.75;3.22;;;;;;;14.69;60.45;100730.31;4914503;29;20043;-81
2023/10/06 04:38:10;;;;;;;8.93;2.30;;;;;;;14.66;60.58;100733.00;4914055;29;20039;-81
2023/10/06 04:40:38;;;;;;;10.55;2.92;;;;;;;14.63;60.31;100724.19;4914268;29;20510;-81
2023/10/06 04:43:04;;;;;;;7.85;2.25;;;;;;;14.61;60.53;100725.09;4897226;29;20532;-80
2023/10/06 04:45:32;;;;;;;8.55;2.22;;;;;;;14.59;60.31;100727.78;4909879;29;20017;-81
2023/10/06 04:48:01;;;;;;;9.47;2.80;;;;;;;14.56;60.54;100727.81;4894987;29;20088;-81
2023/10/06 04:50:30;;;;;;;9.40;2.67;;;;;;;14.54;60.76;100729.59;4895309;29;20100;-81
2023/10/06 04:52:56;;;;;;;8.65;2.30;;;;;;;14.52;60.55;100731.41;4898551;29;20169;-81
2023/10/06 04:55:22;;;;;;;9.73;2.65;;;;;;;14.50;60.49;100735.84;4914169;29;20036;-81
2023/10/06 04:57:47;;;;;;;6.77;2.27;;;;;;;14.47;60.53;100738.53;4914043;29;20040;-81
2023/10/06 05:00:19;;;;;;;8.85;2.60;;;;;;;14.44;60.29;100738.56;4914077;29;20024;-81
2023/10/06 05:02:50;;;;;;;10.53;2.80;;;;;;;14.41;60.72;100735.97;4913453;29;20401;-80
2023/10/06 05:05:21;;;;;;;8.38;2.33;;;;;;;14.39;60.79;100735.97;4895427;29;20036;-80
2023/10/06 05:08:14;;;;;;;7.60;2.55;;;;;;;14.37;60.86;100744.84;4898380;29;20088;-81
2023/10/06 05:10:39;;;;;;;8.35;2.35;;;;;;;14.31;60.59;100746.66;4895314;29;20119;-82
2023/10/06 05:13:14;;;;;;;7.00;2.40;;;;;;;14.27;60.80;100737.00;4909095;29;20017;-82
2023/10/06 05:15:41;;;;;;;10.30;2.70;;;;;;;14.24;60.85;100746.78;4906089;29;20486;-82
2023/10/06 05:18:07;;;;;;;6.97;2.30;;;;;;;14.21;60.87;100752.97;4895564;29;20104;-82
2023/10/06 05:20:35;;;;;;;8.63;2.67;;;;;;;14.17;60.98;100748.59;4895053;29;20119;-82
2023/10/06 05:23:07;;;;;;;10.40;2.53;;;;;;;14.13;60.99;100744.25;4899454;29;20036;-82
2023/10/06 05:25:41;;;;;;;7.13;2.77;;;;;;;14.09;61.50;100753.97;4930026;29;20039;-82
2023/10/06 05:28:16;;;;;;;7.15;2.17;;;;;;;14.06;61.06;100756.66;4915568;29;20024;-82
2023/10/06 05:30:43;;;;;;;7.40;2.50;;;;;;;14.04;61.22;100746.06;4918567;29;20055;-82
2023/10/06 05:33:09;;;;;;;10.13;2.60;;;;;;;14.03;60.88;100743.47;4917973;29;20512;-82
2023/10/06 05:35:38;;;;;;;7.00;2.30;;;;;;;14.01;61.33;100743.47;4896703;29;20514;-82
2023/10/06 05:38:08;;;;;;;10.13;2.80;;;;;;;13.98;61.46;100740.84;4913317;29;20036;-82
2023/10/06 05:40:37;;;;;;;11.45;2.90;;;;;;;13.98;61.39;100743.50;4914171;29;20047;-82
2023/10/06 05:43:04;;;;;;;7.70;2.65;;;;;;;13.97;61.05;100755.00;4913572;29;20396;-82
2023/10/06 05:45:30;;;;;;;9.02;2.50;;;;;;;13.96;61.44;100753.25;4912664;29;20077;-82
2023/10/06 05:47:58;;;;;;;9.67;2.60;;;;;;;13.94;61.33;100757.66;4913256;29;20115;-82
2023/10/06 05:50:28;;;;;;;7.40;2.53;;;;;;;13.92;61.28;100762.09;4912434;29;20032;-82
2023/10/06 05:52:57;;;;;;;7.88;2.40;;;;;;;13.90;61.51;100762.09;4912939;29;20115;-82
2023/10/06 05:55:24;;;;;;;13.93;2.53;;;;;;;13.87;61.40;100764.78;4913350;29;20059;-82
2023/10/06 05:57:55;;;;;;;11.02;2.78;;;;;;;13.87;61.43;100774.53;4913204;29;20597;-82
2023/10/06 06:00:29;;;;;;;7.20;2.30;;;;;;;13.85;61.41;100776.28;4913117;29;20465;-82
2023/10/06 06:03:03;;;;;;;12.27;2.70;;;;;;;13.84;61.64;100777.16;4912781;29;20059;-82
2023/10/06 06:05:33;;;;;;;11.32;3.35;;;;;;;13.83;61.50;100780.72;4919922;29;20083;-81
2023/10/06 06:08:00;;;;;;;10.65;2.92;;;;;;;13.82;61.62;100786.91;4913199;29;20571;-81
2023/10/06 06:10:28;;;;;;;11.30;2.85;;;;;;;13.82;61.81;100786.91;4914783;29;20035;-82
2023/10/06 06:12:55;;;;;;;10.50;2.60;;;;;;;13.81;61.66;100793.09;4913006;29;20111;-81
2023/10/06 06:15:21;;;;;;;9.25;2.85;;;;;;;13.80;61.64;100793.97;4912898;29;20490;-81
2023/10/06 06:17:47;;;;;;;11.45;2.85;;;;;;;13.80;61.77;100791.34;4912329;29;20032;-82
2023/10/06 06:20:14;;;;;;;11.30;3.00;;;;;;;13.82;61.65;100794.84;4913011;29;20079;-81
2023/10/06 06:22:47;;;;;;;9.75;3.15;;;;;;;13.85;61.52;100797.44;4912774;29;20036;-81
2023/10/06 06:25:13;;;;;;;8.90;2.55;;;;;;;13.86;61.65;100801.84;4893967;29;20068;-82
2023/10/06 06:27:39;;;;;;;8.88;2.70;;;;;;;13.87;61.59;100801.00;4890421;29;20102;-81
2023/10/06 06:30:08;;;;;;;11.57;2.80;;;;;;;13.89;61.62;100799.22;4909710;29;20424;-81
2023/10/06 06:32:34;;;;;;;10.43;2.75;;;;;;;13.90;61.39;100801.81;4910436;29;20091;-81
2023/10/06 06:35:00;;;;;;;9.88;3.00;;;;;;;13.92;61.74;100807.97;4911866;29;20032;-81
2023/10/06 06:37:25;;;;;;;11.20;2.90;;;;;;;13.92;61.67;100804.47;4912432;29;20028;-83
2023/10/06 06:39:51;;;;;;;8.83;2.70;;;;;;;13.96;62.14;100806.19;4912545;29;20031;-80
2023/10/06 06:42:16;;;;;;;9.60;3.00;;;;;;;13.99;61.81;100811.47;4912445;29;20104;-81
2023/10/06 06:44:47;;;;;;;9.30;2.80;;;;;;;14.05;61.82;100815.81;4911978;29;20119;-81
2023/10/06 06:47:17;;;;;;;11.88;2.80;;;;;;;14.11;61.92;100817.53;4912252;29;20560;-81
2023/10/06 06:49:44;;;;;;;11.47;2.80;;;;;;;14.16;61.93;100823.66;4911735;29;20028;-81
2023/10/06 06:52:10;;;;;;;10.02;3.00;;;;;;;14.19;61.88;100824.50;4912236;29;20501;-81
2023/10/06 06:54:38;;;;;;;13.15;3.20;;;;;;;14.22;62.07;100828.88;4913509;29;20032;-81
2023/10/06 06:57:04;;;;;;;12.07;3.40;;;;;;;14.25;61.86;100834.16;4922296;29;20032;-79
2023/10/06 06:59:31;;;;;;;10.03;3.07;;;;;;;14.29;61.97;100841.16;4912843;29;20079;-81
2023/10/06 07:01:58;;;;;;;10.55;2.92;;;;;;;14.33;61.88;100837.59;4915003;29;20033;-82
2023/10/06 07:04:26;;;;;;;8.73;3.08;;;;;;;14.38;61.83;100839.34;4915608;29;20028;-81
2023/10/06 07:06:52;;;;;;;10.23;3.40;;;;;;;14.41;62.22;100841.94;4897131;29;20032;-81
2023/10/06 07:09:18;;;;;;;11.83;3.07;;;;;;;14.54;61.95;100840.91;4914129;29;20124;-81
2023/10/06 07:11:44;;;;;;;11.77;3.33;;;;;;;14.76;61.81;100841.59;4914172;29;20122;-81
2023/10/06 07:14:10;;;;;;;9.40;3.45;;;;;;;15.02;61.13;100845.69;4913985;29;20039;-81
2023/10/06 07:16:36;;;;;;;12.37;2.93;;;;;;;15.25;60.68;100838.28;4914129;29;20064;-80
2023/10/06 07:19:01;;;;;;;10.93;3.58;;;;;;;15.45;61.20;100843.31;4914004;29;20028;-81
2023/10/06 07:21:28;;;;;;;9.40;3.40;;;;;;;15.63;60.92;100844.81;4915847;29;20071;-81
2023/10/06 07:23:59;;;;;;;9.77;3.22;;;;;;;15.79;60.28;100846.31;4915842;29;20496;-81
2023/10/06 07:26:25;;;;;;;8.75;3.03;;;;;;;15.99;60.22;100842.47;4915998;29;20090;-81
2023/10/06 07:28:54;;;;;;;13.90;3.60;;;;;;;16.15;59.86;100842.19;4916047;29;20024;-81
2023/10/06 07:31:19;;;;;;;11.45;3.33;;;;;;;16.26;60.13;100842.88;4915277;29;20531;-81
2023/10/06 07:33:47;;;;;;;9.40;3.47;;;;;;;16.32;60.59;100848.09;4915054;29;20063;-81
2023/10/06 07:36:13;;;;;;;9.48;3.00;;;;;;;16.41;60.52;100843.50;4915552;29;20021;-81
2023/10/06 07:38:41;;;;;;;11.52;3.20;;;;;;;16.52;60.40;100854.81;4915470;29;20040;-81
2023/10/06 07:41:07;;;;;;;10.07;3.57;;;;;;;16.61;60.22;100843.09;4915365;29;20040;-81
2023/10/06 07:43:33;;;;;;;13.65;3.53;;;;;;;16.64;60.59;100845.72;4915395;29;20486;-81
2023/10/06 07:46:07;;;;;;;14.73;3.40;;;;;;;16.67;60.70;100845.66;4915184;29;20075;-81
2023/10/06 07:48:39;;;;;;;8.90;3.20;;;;;;;16.81;60.41;100848.03;4915053;29;20024;-81
2023/10/06 07:51:08;;;;;;;10.52;3.45;;;;;;;16.99;59.97;100856.53;4915259;29;20070;-80
2023/10/06 07:53:38;;;;;;;8.43;3.50;;;;;;;17.13;59.82;100856.28;4915121;29;20047;-81
2023/10/06 07:56:07;;;;;;;12.50;3.60;;;;;;;17.25;60.15;100848.00;4915334;29;20099;-81
2023/10/06 07:58:41;;;;;;;13.65;4.40;;;;;;;17.40;59.58;100851.25;4900268;29;20048;-81
2023/10/06 08:01:07;;;;;;;13.93;4.60;;;;;;;17.57;59.54;100848.19;4934312;29;20016;-81
2023/10/06 08:03:43;;;;;;;17.15;5.43;;;;;;;17.73;59.55;100844.25;4927351;29;20541;-81
2023/10/06 08:06:13;;;;;;;12.07;5.40;;;;;;;17.90;59.19;100845.59;4914886;29;20032;-81
2023/10/06 08:08:39;;;;;;;17.85;5.40;;;;;;;17.94;59.15;100841.91;4914751;29;20028;-81
2023/10/06 08:11:06;;;;;;;12.93;4.47;;;;;;;18.01;59.11;100848.91;4915128;29;20088;-81
2023/10/06 08:13:36;;;;;;;11.45;4.20;;;;;;;18.10;58.90;100850.47;4914072;29;20051;-81
2023/10/06 08:16:02;;;;;;;13.15;4.30;;;;;;;18.24;58.80;100854.53;4915231;29;20390;-82
2023/10/06 08:18:29;;;;;;;12.32;4.03;;;;;;;18.39;58.56;100853.25;4914432;29;20043;-82
2023/10/06 08:20:55;;;;;;;12.47;4.10;;;;;;;18.59;58.22;100861.56;4915023;29;20397;-82
2023/10/06 08:23:21;;;;;;;9.13;3.35;;;;;;;18.80;58.26;100853.88;4919609;29;20027;-80
2023/10/06 08:25:46;;;;;;;14.90;4.00;;;;;;;19.03;57.76;100852.34;4928724;29;20024;-80
2023/10/06 08:28:12;;;;;;;9.23;3.60;;;;;;;19.24;57.29;100847.28;4914547;29;20084;-80
2023/10/06 08:30:38;;;;;;;9.17;3.20;;;;;;;19.38;56.90;100850.38;4914285;29;20024;-80
2023/10/06 08:33:08;;;;;;;10.05;3.30;;;;;;;19.52;56.57;100852.63;4913931;29;20135;-80
2023/10/06 08:35:34;;;;;;;11.30;3.28;;;;;;;19.70;56.24;100853.84;4914579;29;20043;-82
2023/10/06 08:38:00;;;;;;;9.20;2.72;;;;;;;19.88;56.31;100854.13;4914173;29;20028;-82
2023/10/06 08:40:26;;;;;;;9.75;3.20;;;;;;;20.07;56.13;100851.75;4920251;29;20091;-82
2023/10/06 08:42:52;;;;;;;82.07;5.70;;;;;;;20.24;55.44;100845.81;4916571;29;20083;-82
2023/10/06 08:45:20;;;;;;;14.50;4.10;;;;;;;20.36;55.34;100852.53;4914470;29;20489;-82
2023/10/06 08:47:50;;;;;;;9.30;3.00;;;;;;;20.46;54.91;100845.06;4913727;29;20276;-80
2023/10/06 08:50:22;;;;;;;9.25;2.75;;;;;;;20.64;54.38;100846.19;4914298;29;20061;-81
2023/10/06 08:52:51;;;;;;;9.43;3.03;;;;;;;20.78;54.25;100845.66;4914246;29;20032;-81
2023/10/06 08:55:21;;;;;;;11.10;3.30;;;;;;;20.90;53.78;100842.56;4914452;29;20059;-81
2023/10/06 08:57:48;;;;;;;9.73;3.03;;;;;;;21.05;53.19;100848.25;4933043;29;20109;-81
2023/10/06 09:00:19;;;;;;;10.20;2.83;;;;;;;21.21;52.71;100840.47;4932617;29;20020;-81
2023/10/06 09:02:47;;;;;;;10.02;3.30;;;;;;;21.38;52.54;100837.16;4932229;29;20023;-82
2023/10/06 09:05:14;;;;;;;13.75;3.10;;;;;;;21.53;52.30;100838.34;4895091;29;20039;-81
2023/10/06 09:07:57;;;;;;;7.72;2.90;;;;;;;21.62;51.70;100842.44;4894766;29;20386;-81
2023/10/06 09:10:22;;;;;;;9.98;3.25;;;;;;;21.84;50.90;100831.72;4900724;29;20020;-81
2023/10/06 09:13:07;;;;;;;11.80;3.23;;;;;;;21.86;50.38;100834.34;4914186;29;20046;-81
2023/10/06 09:15:36;;;;;;;11.35;2.75;;;;;;;21.93;50.40;100825.09;4913961;29;20036;-81
2023/10/06 09:18:22;;;;;;;7.95;2.33;;;;;;;22.02;50.68;100819.31;4913129;29;20501;-81
2023/10/06 09:20:49;;;;;;;10.13;2.43;;;;;;;22.32;50.36;100828.78;4916487;29;20518;-83
2023/10/06 09:23:40;;;;;;;9.52;3.00;;;;;;;22.52;49.90;100825.22;4923264;29;20042;-83
2023/10/06 09:31:11;;;;;;;12.52;2.97;;;;;;;23.03;48.55;100822.00;4895517;29;20105;-82
2023/10/06 09:33:43;;;;;;;12.98;3.35;;;;;;;23.31;47.04;100820.75;4833449;29;20062;-81
2023/10/06 09:36:21;;;;;;;11.30;2.90;;;;;;;23.58;46.21;100812.25;4858706;29;20048;-81
2023/10/06 09:38:47;;;;;;;12.13;3.10;;;;;;;23.78;46.19;100809.44;4894911;29;20040;-82
2023/10/06 09:41:24;;;;;;;11.05;2.78;;;;;;;23.96;45.94;100820.19;4894983;29;20035;-82
2023/10/06 09:43:54;;;;;;;17.33;3.45;;;;;;;24.03;44.13;100813.59;4893559;29;20437;-82
2023/10/06 09:46:22;;;;;;;18.77;3.33;;;;;;;24.14;44.37;100809.44;4878036;29;20036;-82
2023/10/06 09:48:51;;;;;;;14.87;3.00;;;;;;;24.12;44.17;100811.34;4894686;29;20052;-82
2023/10/06 09:51:23;;;;;;;12.13;2.97;;;;;;;24.21;43.59;100811.75;4895185;29;20622;-82
2023/10/06 09:53:49;;;;;;;11.63;3.00;;;;;;;24.32;43.84;100803.09;4894571;29;20035;-82
2023/10/06 09:56:17;;;;;;;10.02;2.65;;;;;;;24.50;43.16;100800.38;4909712;29;20107;-82
2023/10/06 09:58:49;;;;;;;10.98;2.60;;;;;;;24.66;43.54;100792.31;4932059;29;20024;-82
2023/10/06 10:01:25;;;;;;;9.47;3.10;;;;;;;24.74;42.52;100797.28;4934426;29;20064;-81
2023/10/06 10:03:56;;;;;;;11.65;2.45;;;;;;;24.84;42.42;100793.16;4923993;29;20066;-82
2023/10/06 10:06:22;;;;;;;13.05;3.13;;;;;;;25.05;41.68;100801.84;4913297;29;20412;-82
2023/10/06 10:08:51;;;;;;;11.05;2.88;;;;;;;25.28;40.77;100790.72;4914910;29;20028;-82
2023/10/06 10:11:28;;;;;;;11.80;2.63;;;;;;;25.44;39.42;100790.69;4912754;29;20091;-81
2023/10/06 10:14:09;;;;;;;13.93;3.00;;;;;;;25.61;38.56;100781.63;4915344;29;20100;-81
2023/10/06 10:17:02;;;;;;;16.63;2.80;;;;;;;25.90;35.90;100784.41;4913228;29;20035;-82
2023/10/06 10:19:28;;;;;;;12.10;2.75;;;;;;;26.03;36.72;100777.31;4911686;29;20036;-80
2023/10/06 10:21:58;;;;;;;16.52;2.72;;;;;;;26.15;37.00;100785.63;4916313;29;20040;-81
2023/10/06 10:24:25;;;;;;;13.00;2.58;;;;;;;26.25;37.09;100770.63;4914581;29;20127;-84
2023/10/06 10:26:53;;;;;;;18.93;3.17;;;;;;;26.50;34.79;100769.09;4912030;29;20123;-82
2023/10/06 10:29:19;;;;;;;15.60;2.58;;;;;;;26.57;35.52;100769.56;4920066;29;20039;-82
2023/10/06 10:31:57;;;;;;;19.00;5.60;;;;;;;26.58;35.28;100761.34;4911201;29;20104;-82
2023/10/06 10:34:25;;;;;;;22.73;3.67;;;;;;;26.74;35.18;100771.19;4911019;29;20029;-82
2023/10/06 10:36:53;;;;;;;12.75;3.35;;;;;;;26.78;35.23;100767.31;4915383;29;20404;-82
2023/10/06 10:39:19;;;;;;;13.15;2.63;;;;;;;26.94;34.88;100765.41;4917841;29;20028;-82
2023/10/06 10:41:45;;;;;;;14.70;2.70;;;;;;;27.07;34.71;100759.16;4916129;29;20032;-82
2023/10/06 10:44:12;;;;;;;12.10;2.55;;;;;;;27.29;33.97;100764.03;4921129;29;20023;-82
2023/10/06 10:46:49;;;;;;;10.53;2.73;;;;;;;27.28;33.50;100765.00;4915671;29;20032;-82
2023/10/06 10:49:19;;;;;;;11.98;2.95;;;;;;;27.36;32.87;100761.75;4915785;29;20064;-82
2023/10/06 10:52:05;;;;;;;9.88;2.63;;;;;;;27.36;33.64;100767.16;4921547;29;20031;-82
2023/10/06 10:54:33;;;;;;;9.38;3.15;;;;;;;27.62;33.09;100759.19;4915058;29;20413;-82
2023/10/06 10:57:25;;;;;;;11.63;2.67;;;;;;;27.60;32.49;100753.88;4898191;29;20031;-81
2023/10/06 11:00:00;;;;;;;11.40;2.60;;;;;;;27.73;31.87;100758.44;4913491;29;20489;-82
2023/10/06 11:03:00;;;;;;;9.98;2.33;;;;;;;27.68;31.23;100756.06;4913817;29;20035;-82
2023/10/06 11:05:26;;;;;;;8.02;2.08;;;;;;;27.90;31.71;100751.88;4913424;29;20072;-83
2023/10/06 11:07:58;;;;;;;8.32;2.45;;;;;;;28.03;31.61;100750.03;4918353;29;20079;-82
2023/10/06 11:10:24;;;;;;;9.18;2.78;;;;;;;28.22;30.79;100755.06;4913395;29;20028;-82
2023/10/06 11:12:50;;;;;;;8.77;2.23;;;;;;;28.26;30.63;100747.56;4915606;29;20024;-82
2023/10/06 11:15:37;;;;;;;7.75;2.13;;;;;;;28.25;30.79;100742.25;4915694;29;20031;-82
2023/10/06 11:18:05;;;;;;;7.32;2.08;;;;;;;28.47;29.97;100737.03;4912673;29;20029;-82
2023/10/06 11:20:39;;;;;;;10.43;2.50;;;;;;;28.53;30.65;100737.56;4915514;29;20024;-82
2023/10/06 11:23:05;;;;;;;9.77;2.63;;;;;;;28.71;30.29;100732.63;4918868;29;20191;-82
2023/10/06 11:25:38;;;;;;;8.18;2.15;;;;;;;28.91;30.43;100733.91;4926267;29;20224;-81
2023/10/06 11:28:06;;;;;;;10.73;2.22;;;;;;;29.04;29.92;100733.84;4910757;29;20076;-81
2023/10/06 11:30:33;;;;;;;11.23;2.28;;;;;;;29.11;29.26;100728.81;4911666;29;20028;-83
2023/10/06 11:33:04;;;;;;;8.17;2.03;;;;;;;29.17;29.88;100726.53;4913056;29;20104;-80
2023/10/06 11:35:34;;;;;;;7.53;2.00;;;;;;;29.32;29.42;100715.50;4915269;29;20047;-80
2023/10/06 11:38:05;;;;;;;6.35;1.85;;;;;;;29.44;29.91;100720.00;4913141;29;20034;-82
2023/10/06 11:40:31;;;;;;;7.53;2.28;;;;;;;29.56;29.67;100712.78;4914790;29;20111;-80
2023/10/06 11:43:11;;;;;;;6.65;2.45;;;;;;;29.60;29.59;100718.84;4896600;29;20063;-80
2023/10/06 11:45:37;;;;;;;9.70;2.20;;;;;;;29.84;29.28;100716.03;4915379;29;20028;-81
2023/10/06 11:48:03;;;;;;;8.68;2.55;;;;;;;29.97;28.41;100710.50;4913799;29;20092;-82
2023/10/06 11:50:32;;;;;;;8.60;2.60;;;;;;;30.04;28.96;100711.78;4915500;29;20036;-81
2023/10/06 11:52:59;;;;;;;7.90;2.42;;;;;;;30.00;28.55;100704.81;4915283;29;20504;-83